sensor_id;sensor_type;location;lat;lon;timestamp;P1;durP1;ratioP1;P2;durP2;ratioP2
18752;SDS011;9505;50.882;5.350;2023-03-03T00:01:21;89.57;;;21.25;;
18752;SDS011;9505;50.882;5.350;2023-03-03T00:03:49;81.95;;;21.17;;
18752;SDS011;9505;50.882;5.350;2023-03-03T00:06:15;75.30;;;18.30;;
18752;SDS011;9505;50.882;5.350;2023-03-03T00:08:40;103.63;;;20.90;;
18752;SDS011;9505;50.882;5.350;2023-03-03T00:11:07;86.38;;;20.05;;
18752;SDS011;9505;50.882;5.350;2023-03-03T00:13:44;92.13;;;19.70;;
18752;SDS011;9505;50.882;5.350;2023-03-03T00:16:16;91.25;;;19.58;;
18752;SDS011;9505;50.882;5.350;2023-03-03T00:18:48;98.75;;;20.30;;
18752;SDS011;9505;50.882;5.350;2023-03-03T00:21:17;79.85;;;18.90;;
18752;SDS011;9505;50.882;5.350;2023-03-03T00:23:50;94.90;;;19.42;;
18752;SDS011;9505;50.882;5.350;2023-03-03T00:26:28;87.75;;;19.92;;
18752;SDS011;9505;50.882;5.350;2023-03-03T00:28:58;78.30;;;17.35;;
18752;SDS011;9505;50.882;5.350;2023-03-03T00:31:28;89.82;;;20.70;;
18752;SDS011;9505;50.882;5.350;2023-03-03T00:33:59;103.45;;;21.10;;
18752;SDS011;9505;50.882;5.350;2023-03-03T00:36:45;101.45;;;20.35;;
18752;SDS011;9505;50.882;5.350;2023-03-03T00:39:22;94.63;;;21.67;;
18752;SDS011;9505;50.882;5.350;2023-03-03T00:41:53;93.57;;;21.00;;
18752;SDS011;9505;50.882;5.350;2023-03-03T00:47:21;98.07;;;20.40;;
18752;SDS011;9505;50.882;5.350;2023-03-03T00:52:37;90.25;;;20.88;;
18752;SDS011;9505;50.882;5.350;2023-03-03T00:55:04;89.80;;;20.43;;
18752;SDS011;9505;50.882;5.350;2023-03-03T00:57:31;100.30;;;21.00;;
18752;SDS011;9505;50.882;5.350;2023-03-03T00:59:57;91.73;;;19.63;;
18752;SDS011;9505;50.882;5.350;2023-03-03T01:02:22;89.50;;;19.90;;
18752;SDS011;9505;50.882;5.350;2023-03-03T01:04:49;97.43;;;20.87;;
18752;SDS011;9505;50.882;5.350;2023-03-03T01:07:16;87.23;;;19.70;;
18752;SDS011;9505;50.882;5.350;2023-03-03T01:09:42;126.17;;;24.77;;
18752;SDS011;9505;50.882;5.350;2023-03-03T01:12:07;97.43;;;21.90;;
18752;SDS011;9505;50.882;5.350;2023-03-03T01:14:34;102.33;;;21.17;;
18752;SDS011;9505;50.882;5.350;2023-03-03T01:17:00;95.73;;;20.33;;
18752;SDS011;9505;50.882;5.350;2023-03-03T01:19:26;95.93;;;20.37;;
18752;SDS011;9505;50.882;5.350;2023-03-03T01:21:52;103.13;;;21.60;;
18752;SDS011;9505;50.882;5.350;2023-03-03T01:24:17;95.03;;;18.55;;
18752;SDS011;9505;50.882;5.350;2023-03-03T01:26:43;101.43;;;22.97;;
18752;SDS011;9505;50.882;5.350;2023-03-03T01:29:08;95.17;;;20.20;;
18752;SDS011;9505;50.882;5.350;2023-03-03T01:31:34;107.00;;;22.57;;
18752;SDS011;9505;50.882;5.350;2023-03-03T01:34:00;110.10;;;22.50;;
18752;SDS011;9505;50.882;5.350;2023-03-03T01:36:26;97.97;;;20.70;;
18752;SDS011;9505;50.882;5.350;2023-03-03T01:38:52;107.57;;;22.52;;
18752;SDS011;9505;50.882;5.350;2023-03-03T01:41:18;118.30;;;24.10;;
18752;SDS011;9505;50.882;5.350;2023-03-03T01:43:44;105.32;;;22.45;;
18752;SDS011;9505;50.882;5.350;2023-03-03T01:49:12;122.72;;;26.88;;
18752;SDS011;9505;50.882;5.350;2023-03-03T01:51:53;121.68;;;26.88;;
18752;SDS011;9505;50.882;5.350;2023-03-03T01:54:24;122.32;;;27.10;;
18752;SDS011;9505;50.882;5.350;2023-03-03T01:57:12;143.15;;;30.63;;
18752;SDS011;9505;50.882;5.350;2023-03-03T01:59:42;142.20;;;29.90;;
18752;SDS011;9505;50.882;5.350;2023-03-03T02:02:12;144.07;;;29.67;;
18752;SDS011;9505;50.882;5.350;2023-03-03T02:04:38;147.93;;;28.77;;
18752;SDS011;9505;50.882;5.350;2023-03-03T02:07:05;170.13;;;32.78;;
18752;SDS011;9505;50.882;5.350;2023-03-03T02:12:20;173.50;;;32.72;;
18752;SDS011;9505;50.882;5.350;2023-03-03T02:14:52;178.57;;;33.55;;
18752;SDS011;9505;50.882;5.350;2023-03-03T02:17:17;163.23;;;31.08;;
18752;SDS011;9505;50.882;5.350;2023-03-03T02:19:50;163.88;;;33.22;;
18752;SDS011;9505;50.882;5.350;2023-03-03T02:22:39;175.65;;;32.47;;
18752;SDS011;9505;50.882;5.350;2023-03-03T02:25:21;164.68;;;34.85;;
18752;SDS011;9505;50.882;5.350;2023-03-03T02:28:06;169.10;;;34.72;;
18752;SDS011;9505;50.882;5.350;2023-03-03T02:30:35;198.32;;;35.75;;
18752;SDS011;9505;50.882;5.350;2023-03-03T02:33:02;195.02;;;34.75;;
18752;SDS011;9505;50.882;5.350;2023-03-03T02:35:32;181.38;;;34.75;;
18752;SDS011;9505;50.882;5.350;2023-03-03T02:38:43;194.23;;;35.30;;
18752;SDS011;9505;50.882;5.350;2023-03-03T02:43:45;180.43;;;35.17;;
18752;SDS011;9505;50.882;5.350;2023-03-03T02:46:18;182.68;;;35.03;;
18752;SDS011;9505;50.882;5.350;2023-03-03T02:48:44;170.20;;;34.03;;
18752;SDS011;9505;50.882;5.350;2023-03-03T02:51:09;161.50;;;32.65;;
18752;SDS011;9505;50.882;5.350;2023-03-03T02:53:35;181.45;;;34.13;;
18752;SDS011;9505;50.882;5.350;2023-03-03T02:56:00;168.30;;;33.85;;
18752;SDS011;9505;50.882;5.350;2023-03-03T02:58:28;173.32;;;35.38;;
18752;SDS011;9505;50.882;5.350;2023-03-03T03:00:54;175.82;;;32.65;;
18752;SDS011;9505;50.882;5.350;2023-03-03T03:03:20;167.25;;;33.72;;
18752;SDS011;9505;50.882;5.350;2023-03-03T03:05:45;187.25;;;35.45;;
18752;SDS011;9505;50.882;5.350;2023-03-03T03:08:11;180.75;;;32.58;;
18752;SDS011;9505;50.882;5.350;2023-03-03T03:10:36;185.70;;;35.30;;
18752;SDS011;9505;50.882;5.350;2023-03-03T03:13:03;179.63;;;34.63;;
18752;SDS011;9505;50.882;5.350;2023-03-03T03:15:28;168.02;;;33.47;;
18752;SDS011;9505;50.882;5.350;2023-03-03T03:17:54;186.00;;;34.45;;
18752;SDS011;9505;50.882;5.350;2023-03-03T03:20:20;168.52;;;31.70;;
18752;SDS011;9505;50.882;5.350;2023-03-03T03:22:45;166.93;;;32.75;;
18752;SDS011;9505;50.882;5.350;2023-03-03T03:25:11;207.05;;;34.95;;
18752;SDS011;9505;50.882;5.350;2023-03-03T03:27:36;168.35;;;32.22;;
18752;SDS011;9505;50.882;5.350;2023-03-03T03:30:02;178.60;;;33.53;;
18752;SDS011;9505;50.882;5.350;2023-03-03T03:32:28;153.00;;;31.38;;
18752;SDS011;9505;50.882;5.350;2023-03-03T03:34:53;188.63;;;34.08;;
18752;SDS011;9505;50.882;5.350;2023-03-03T03:37:19;203.85;;;33.17;;
18752;SDS011;9505;50.882;5.350;2023-03-03T03:39:45;180.45;;;33.35;;
18752;SDS011;9505;50.882;5.350;2023-03-03T03:42:10;202.40;;;37.90;;
18752;SDS011;9505;50.882;5.350;2023-03-03T03:44:36;189.25;;;34.58;;
18752;SDS011;9505;50.882;5.350;2023-03-03T03:47:02;192.15;;;34.05;;
18752;SDS011;9505;50.882;5.350;2023-03-03T03:49:27;203.30;;;34.88;;
18752;SDS011;9505;50.882;5.350;2023-03-03T03:51:53;188.80;;;34.85;;
18752;SDS011;9505;50.882;5.350;2023-03-03T03:54:19;194.20;;;33.40;;
18752;SDS011;9505;50.882;5.350;2023-03-03T03:56:45;195.30;;;34.08;;
18752;SDS011;9505;50.882;5.350;2023-03-03T03:59:11;188.93;;;33.75;;
18752;SDS011;9505;50.882;5.350;2023-03-03T04:01:36;177.27;;;32.80;;
18752;SDS011;9505;50.882;5.350;2023-03-03T04:04:02;208.38;;;35.03;;
18752;SDS011;9505;50.882;5.350;2023-03-03T04:06:29;201.30;;;36.22;;
18752;SDS011;9505;50.882;5.350;2023-03-03T04:08:54;188.05;;;35.13;;
18752;SDS011;9505;50.882;5.350;2023-03-03T04:11:20;183.25;;;33.83;;
18752;SDS011;9505;50.882;5.350;2023-03-03T04:13:46;190.82;;;34.67;;
18752;SDS011;9505;50.882;5.350;2023-03-03T04:16:11;182.07;;;34.05;;
18752;SDS011;9505;50.882;5.350;2023-03-03T04:18:37;173.63;;;32.90;;
18752;SDS011;9505;50.882;5.350;2023-03-03T04:21:03;174.45;;;32.55;;
18752;SDS011;9505;50.882;5.350;2023-03-03T04:23:29;162.05;;;31.58;;
18752;SDS011;9505;50.882;5.350;2023-03-03T04:25:54;168.32;;;31.55;;
18752;SDS011;9505;50.882;5.350;2023-03-03T04:28:20;157.88;;;29.33;;
18752;SDS011;9505;50.882;5.350;2023-03-03T04:30:46;171.63;;;32.70;;
18752;SDS011;9505;50.882;5.350;2023-03-03T04:33:12;163.80;;;31.00;;
18752;SDS011;9505;50.882;5.350;2023-03-03T04:35:37;147.82;;;29.40;;
18752;SDS011;9505;50.882;5.350;2023-03-03T04:38:03;174.40;;;30.13;;
18752;SDS011;9505;50.882;5.350;2023-03-03T04:40:29;147.30;;;29.17;;
18752;SDS011;9505;50.882;5.350;2023-03-03T04:42:55;157.10;;;27.47;;
18752;SDS011;9505;50.882;5.350;2023-03-03T04:45:20;141.80;;;26.92;;
18752;SDS011;9505;50.882;5.350;2023-03-03T04:47:46;135.20;;;25.08;;
18752;SDS011;9505;50.882;5.350;2023-03-03T04:50:12;141.48;;;27.60;;
18752;SDS011;9505;50.882;5.350;2023-03-03T04:52:37;144.27;;;26.58;;
18752;SDS011;9505;50.882;5.350;2023-03-03T04:55:03;130.52;;;24.35;;
18752;SDS011;9505;50.882;5.350;2023-03-03T04:57:29;140.85;;;26.13;;
18752;SDS011;9505;50.882;5.350;2023-03-03T04:59:54;140.10;;;25.50;;
18752;SDS011;9505;50.882;5.350;2023-03-03T05:02:20;141.98;;;26.05;;
18752;SDS011;9505;50.882;5.350;2023-03-03T05:04:46;147.80;;;27.27;;
18752;SDS011;9505;50.882;5.350;2023-03-03T05:07:11;125.15;;;23.33;;
18752;SDS011;9505;50.882;5.350;2023-03-03T05:09:37;122.47;;;24.60;;
18752;SDS011;9505;50.882;5.350;2023-03-03T05:12:03;138.48;;;24.77;;
18752;SDS011;9505;50.882;5.350;2023-03-03T05:14:28;122.68;;;23.98;;
18752;SDS011;9505;50.882;5.350;2023-03-03T05:16:55;125.80;;;23.67;;
18752;SDS011;9505;50.882;5.350;2023-03-03T05:19:20;124.03;;;25.05;;
18752;SDS011;9505;50.882;5.350;2023-03-03T05:21:46;113.32;;;22.42;;
18752;SDS011;9505;50.882;5.350;2023-03-03T05:24:12;128.57;;;23.92;;
18752;SDS011;9505;50.882;5.350;2023-03-03T05:26:38;140.05;;;24.75;;
18752;SDS011;9505;50.882;5.350;2023-03-03T05:29:04;120.22;;;23.10;;
18752;SDS011;9505;50.882;5.350;2023-03-03T05:31:30;129.52;;;22.85;;
18752;SDS011;9505;50.882;5.350;2023-03-03T05:33:56;124.32;;;23.13;;
18752;SDS011;9505;50.882;5.350;2023-03-03T05:36:22;116.93;;;23.65;;
18752;SDS011;9505;50.882;5.350;2023-03-03T05:38:47;111.68;;;23.88;;
18752;SDS011;9505;50.882;5.350;2023-03-03T05:41:13;133.38;;;24.40;;
18752;SDS011;9505;50.882;5.350;2023-03-03T05:43:39;112.13;;;22.60;;
18752;SDS011;9505;50.882;5.350;2023-03-03T05:46:04;119.95;;;23.70;;
18752;SDS011;9505;50.882;5.350;2023-03-03T05:48:30;121.70;;;23.73;;
18752;SDS011;9505;50.882;5.350;2023-03-03T05:50:59;113.22;;;22.77;;
18752;SDS011;9505;50.882;5.350;2023-03-03T05:53:27;124.50;;;22.20;;
18752;SDS011;9505;50.882;5.350;2023-03-03T05:55:53;115.72;;;22.10;;
18752;SDS011;9505;50.882;5.350;2023-03-03T05:58:19;122.57;;;21.98;;
18752;SDS011;9505;50.882;5.350;2023-03-03T06:00:45;112.15;;;20.48;;
18752;SDS011;9505;50.882;5.350;2023-03-03T06:03:11;119.88;;;21.98;;
18752;SDS011;9505;50.882;5.350;2023-03-03T06:05:36;124.43;;;22.20;;
18752;SDS011;9505;50.882;5.350;2023-03-03T06:08:02;117.97;;;21.30;;
18752;SDS011;9505;50.882;5.350;2023-03-03T06:10:28;120.10;;;21.67;;
18752;SDS011;9505;50.882;5.350;2023-03-03T06:12:53;108.05;;;20.58;;
18752;SDS011;9505;50.882;5.350;2023-03-03T06:15:19;129.45;;;22.90;;
18752;SDS011;9505;50.882;5.350;2023-03-03T06:17:46;108.60;;;18.95;;
18752;SDS011;9505;50.882;5.350;2023-03-03T06:20:12;102.20;;;19.65;;
18752;SDS011;9505;50.882;5.350;2023-03-03T06:22:37;115.37;;;21.33;;
18752;SDS011;9505;50.882;5.350;2023-03-03T06:25:03;113.30;;;22.33;;
18752;SDS011;9505;50.882;5.350;2023-03-03T06:27:29;112.10;;;20.83;;
18752;SDS011;9505;50.882;5.350;2023-03-03T06:29:55;111.72;;;18.88;;
18752;SDS011;9505;50.882;5.350;2023-03-03T06:32:20;131.77;;;20.70;;
18752;SDS011;9505;50.882;5.350;2023-03-03T06:34:46;110.30;;;19.27;;
18752;SDS011;9505;50.882;5.350;2023-03-03T06:37:11;108.38;;;21.55;;
18752;SDS011;9505;50.882;5.350;2023-03-03T06:39:37;120.32;;;20.02;;
18752;SDS011;9505;50.882;5.350;2023-03-03T06:42:03;119.25;;;20.70;;
18752;SDS011;9505;50.882;5.350;2023-03-03T06:44:28;126.50;;;22.52;;
18752;SDS011;9505;50.882;5.350;2023-03-03T06:46:54;108.95;;;20.08;;
18752;SDS011;9505;50.882;5.350;2023-03-03T06:49:22;114.68;;;20.15;;
18752;SDS011;9505;50.882;5.350;2023-03-03T06:51:47;127.90;;;20.80;;
18752;SDS011;9505;50.882;5.350;2023-03-03T06:54:14;120.53;;;22.25;;
18752;SDS011;9505;50.882;5.350;2023-03-03T06:56:42;115.47;;;19.70;;
18752;SDS011;9505;50.882;5.350;2023-03-03T06:59:13;120.28;;;20.75;;
18752;SDS011;9505;50.882;5.350;2023-03-03T07:01:40;100.15;;;20.15;;
18752;SDS011;9505;50.882;5.350;2023-03-03T07:04:21;122.72;;;20.48;;
18752;SDS011;9505;50.882;5.350;2023-03-03T07:06:53;124.22;;;20.70;;
18752;SDS011;9505;50.882;5.350;2023-03-03T07:09:23;121.32;;;20.75;;
18752;SDS011;9505;50.882;5.350;2023-03-03T07:11:52;129.95;;;22.77;;
18752;SDS011;9505;50.882;5.350;2023-03-03T07:14:21;125.35;;;19.83;;
18752;SDS011;9505;50.882;5.350;2023-03-03T07:16:50;130.65;;;22.00;;
18752;SDS011;9505;50.882;5.350;2023-03-03T07:19:33;134.70;;;22.02;;
18752;SDS011;9505;50.882;5.350;2023-03-03T07:24:43;103.43;;;18.55;;
18752;SDS011;9505;50.882;5.350;2023-03-03T07:27:16;95.22;;;17.85;;
18752;SDS011;9505;50.882;5.350;2023-03-03T07:29:49;121.45;;;21.30;;
18752;SDS011;9505;50.882;5.350;2023-03-03T07:34:51;117.63;;;20.40;;
18752;SDS011;9505;50.882;5.350;2023-03-03T07:37:25;128.40;;;20.92;;
18752;SDS011;9505;50.882;5.350;2023-03-03T07:39:56;101.30;;;18.33;;
18752;SDS011;9505;50.882;5.350;2023-03-03T07:42:26;97.20;;;17.40;;
18752;SDS011;9505;50.882;5.350;2023-03-03T07:45:02;101.53;;;19.85;;
18752;SDS011;9505;50.882;5.350;2023-03-03T07:47:46;104.13;;;19.50;;
18752;SDS011;9505;50.882;5.350;2023-03-03T07:50:13;98.18;;;18.67;;
18752;SDS011;9505;50.882;5.350;2023-03-03T07:52:45;97.32;;;19.98;;
18752;SDS011;9505;50.882;5.350;2023-03-03T07:55:37;122.65;;;21.42;;
18752;SDS011;9505;50.882;5.350;2023-03-03T08:03:43;91.70;;;17.65;;
18752;SDS011;9505;50.882;5.350;2023-03-03T08:06:44;97.05;;;18.63;;
18752;SDS011;9505;50.882;5.350;2023-03-03T08:11:33;109.90;;;21.23;;
18752;SDS011;9505;50.882;5.350;2023-03-03T08:13:59;107.40;;;19.05;;
18752;SDS011;9505;50.882;5.350;2023-03-03T08:16:37;120.13;;;20.75;;
18752;SDS011;9505;50.882;5.350;2023-03-03T08:19:04;99.28;;;18.33;;
18752;SDS011;9505;50.882;5.350;2023-03-03T08:21:30;110.53;;;20.25;;
18752;SDS011;9505;50.882;5.350;2023-03-03T08:23:59;108.45;;;18.50;;
18752;SDS011;9505;50.882;5.350;2023-03-03T08:26:25;118.97;;;18.40;;
18752;SDS011;9505;50.882;5.350;2023-03-03T08:28:52;103.10;;;18.73;;
18752;SDS011;9505;50.882;5.350;2023-03-03T08:31:18;123.65;;;20.80;;
18752;SDS011;9505;50.882;5.350;2023-03-03T08:33:44;119.47;;;22.33;;
18752;SDS011;9505;50.882;5.350;2023-03-03T08:36:11;110.30;;;20.30;;
18752;SDS011;9505;50.882;5.350;2023-03-03T08:38:37;129.30;;;21.23;;
18752;SDS011;9505;50.882;5.350;2023-03-03T08:41:03;109.32;;;20.95;;
18752;SDS011;9505;50.882;5.350;2023-03-03T08:43:29;115.50;;;20.25;;
18752;SDS011;9505;50.882;5.350;2023-03-03T08:45:57;101.22;;;19.70;;
18752;SDS011;9505;50.882;5.350;2023-03-03T08:48:24;95.20;;;18.63;;
18752;SDS011;9505;50.882;5.350;2023-03-03T08:50:51;99.05;;;19.77;;
18752;SDS011;9505;50.882;5.350;2023-03-03T08:53:17;99.57;;;18.98;;
18752;SDS011;9505;50.882;5.350;2023-03-03T08:55:43;111.50;;;20.45;;
18752;SDS011;9505;50.882;5.350;2023-03-03T08:58:09;86.43;;;18.20;;
18752;SDS011;9505;50.882;5.350;2023-03-03T09:00:35;97.88;;;20.65;;
18752;SDS011;9505;50.882;5.350;2023-03-03T09:03:01;95.55;;;19.15;;
18752;SDS011;9505;50.882;5.350;2023-03-03T09:05:27;92.07;;;18.55;;
18752;SDS011;9505;50.882;5.350;2023-03-03T09:07:53;99.13;;;20.00;;
18752;SDS011;9505;50.882;5.350;2023-03-03T09:10:22;89.90;;;18.88;;
18752;SDS011;9505;50.882;5.350;2023-03-03T09:12:55;96.20;;;19.10;;
18752;SDS011;9505;50.882;5.350;2023-03-03T09:15:29;89.53;;;18.08;;
18752;SDS011;9505;50.882;5.350;2023-03-03T09:18:19;89.55;;;19.25;;
18752;SDS011;9505;50.882;5.350;2023-03-03T09:28:46;95.60;;;18.95;;
18752;SDS011;9505;50.882;5.350;2023-03-03T09:33:46;91.20;;;18.52;;
18752;SDS011;9505;50.882;5.350;2023-03-03T09:38:49;85.03;;;17.85;;
18752;SDS011;9505;50.882;5.350;2023-03-03T09:42:00;91.70;;;18.67;;
18752;SDS011;9505;50.882;5.350;2023-03-03T09:49:34;82.13;;;18.73;;
18752;SDS011;9505;50.882;5.350;2023-03-03T09:52:02;83.18;;;17.42;;
18752;SDS011;9505;50.882;5.350;2023-03-03T09:54:43;70.45;;;16.38;;
18752;SDS011;9505;50.882;5.350;2023-03-03T09:57:45;95.57;;;18.60;;
18752;SDS011;9505;50.882;5.350;2023-03-03T10:11:38;81.63;;;16.85;;
18752;SDS011;9505;50.882;5.350;2023-03-03T10:14:16;75.72;;;15.77;;
18752;SDS011;9505;50.882;5.350;2023-03-03T10:19:40;86.10;;;17.77;;
18752;SDS011;9505;50.882;5.350;2023-03-03T10:30:32;67.80;;;15.00;;
18752;SDS011;9505;50.882;5.350;2023-03-03T10:47:38;72.90;;;16.00;;
18752;SDS011;9505;50.882;5.350;2023-03-03T10:58:44;78.25;;;17.05;;
18752;SDS011;9505;50.882;5.350;2023-03-03T11:04:22;76.55;;;17.08;;
18752;SDS011;9505;50.882;5.350;2023-03-03T11:22:58;74.85;;;16.58;;
18752;SDS011;9505;50.882;5.350;2023-03-03T11:25:43;70.57;;;17.00;;
18752;SDS011;9505;50.882;5.350;2023-03-03T11:36:22;65.60;;;14.98;;
18752;SDS011;9505;50.882;5.350;2023-03-03T11:41:29;64.18;;;14.48;;
18752;SDS011;9505;50.882;5.350;2023-03-03T11:49:27;67.10;;;16.25;;
18752;SDS011;9505;50.882;5.350;2023-03-03T11:52:27;69.55;;;14.73;;
18752;SDS011;9505;50.882;5.350;2023-03-03T11:55:04;70.10;;;15.43;;
18752;SDS011;9505;50.882;5.350;2023-03-03T11:57:55;67.32;;;15.00;;
18752;SDS011;9505;50.882;5.350;2023-03-03T12:03:39;77.97;;;15.88;;
18752;SDS011;9505;50.882;5.350;2023-03-03T12:36:27;73.13;;;14.73;;
18752;SDS011;9505;50.882;5.350;2023-03-03T12:39:06;63.30;;;14.10;;
18752;SDS011;9505;50.882;5.350;2023-03-03T12:42:17;70.68;;;14.25;;
18752;SDS011;9505;50.882;5.350;2023-03-03T12:45:09;59.53;;;13.60;;
18752;SDS011;9505;50.882;5.350;2023-03-03T12:50:38;59.35;;;14.27;;
18752;SDS011;9505;50.882;5.350;2023-03-03T12:56:33;60.53;;;13.68;;
18752;SDS011;9505;50.882;5.350;2023-03-03T12:59:03;57.63;;;13.05;;
18752;SDS011;9505;50.882;5.350;2023-03-03T13:07:33;55.83;;;13.10;;
18752;SDS011;9505;50.882;5.350;2023-03-03T13:13:16;54.67;;;12.80;;
18752;SDS011;9505;50.882;5.350;2023-03-03T13:15:59;58.60;;;12.55;;
18752;SDS011;9505;50.882;5.350;2023-03-03T13:24:01;56.95;;;13.05;;
18752;SDS011;9505;50.882;5.350;2023-03-03T13:26:35;51.58;;;12.55;;
18752;SDS011;9505;50.882;5.350;2023-03-03T13:31:34;63.90;;;13.32;;
18752;SDS011;9505;50.882;5.350;2023-03-03T13:34:03;66.78;;;13.63;;
18752;SDS011;9505;50.882;5.350;2023-03-03T13:36:37;63.38;;;14.52;;
18752;SDS011;9505;50.882;5.350;2023-03-03T13:39:21;72.97;;;13.40;;
18752;SDS011;9505;50.882;5.350;2023-03-03T13:44:51;60.58;;;12.88;;
18752;SDS011;9505;50.882;5.350;2023-03-03T13:47:55;50.47;;;11.95;;
18752;SDS011;9505;50.882;5.350;2023-03-03T13:52:53;52.92;;;12.50;;
18752;SDS011;9505;50.882;5.350;2023-03-03T13:56:05;56.00;;;12.18;;
18752;SDS011;9505;50.882;5.350;2023-03-03T13:58:47;88.57;;;16.42;;
18752;SDS011;9505;50.882;5.350;2023-03-03T14:06:31;67.30;;;13.85;;
18752;SDS011;9505;50.882;5.350;2023-03-03T14:17:52;61.05;;;12.75;;
18752;SDS011;9505;50.882;5.350;2023-03-03T14:20:44;94.85;;;17.45;;
18752;SDS011;9505;50.882;5.350;2023-03-03T14:23:20;85.30;;;15.32;;
18752;SDS011;9505;50.882;5.350;2023-03-03T14:28:38;61.03;;;13.32;;
18752;SDS011;9505;50.882;5.350;2023-03-03T14:31:14;61.05;;;13.52;;
18752;SDS011;9505;50.882;5.350;2023-03-03T14:33:42;59.97;;;13.85;;
18752;SDS011;9505;50.882;5.350;2023-03-03T14:36:12;70.88;;;15.68;;
18752;SDS011;9505;50.882;5.350;2023-03-03T14:38:40;69.45;;;15.27;;
18752;SDS011;9505;50.882;5.350;2023-03-03T14:43:36;71.25;;;13.95;;
18752;SDS011;9505;50.882;5.350;2023-03-03T14:48:58;60.72;;;13.48;;
18752;SDS011;9505;50.882;5.350;2023-03-03T14:51:37;86.88;;;16.77;;
18752;SDS011;9505;50.882;5.350;2023-03-03T14:54:07;66.53;;;14.68;;
18752;SDS011;9505;50.882;5.350;2023-03-03T14:56:57;51.05;;;12.48;;
18752;SDS011;9505;50.882;5.350;2023-03-03T14:59:25;62.95;;;13.68;;
18752;SDS011;9505;50.882;5.350;2023-03-03T15:04:43;81.10;;;16.20;;
18752;SDS011;9505;50.882;5.350;2023-03-03T15:09:53;74.63;;;14.80;;
18752;SDS011;9505;50.882;5.350;2023-03-03T15:14:52;78.47;;;15.77;;
18752;SDS011;9505;50.882;5.350;2023-03-03T15:17:36;61.85;;;14.02;;
18752;SDS011;9505;50.882;5.350;2023-03-03T15:42:13;64.93;;;13.48;;
18752;SDS011;9505;50.882;5.350;2023-03-03T15:47:26;75.60;;;15.63;;
18752;SDS011;9505;50.882;5.350;2023-03-03T16:01:50;88.18;;;16.77;;
18752;SDS011;9505;50.882;5.350;2023-03-03T16:04:17;88.68;;;16.38;;
18752;SDS011;9505;50.882;5.350;2023-03-03T16:09:53;87.05;;;15.35;;
18752;SDS011;9505;50.882;5.350;2023-03-03T16:12:50;67.45;;;14.15;;
18752;SDS011;9505;50.882;5.350;2023-03-03T16:15:38;82.63;;;15.45;;
18752;SDS011;9505;50.882;5.350;2023-03-03T16:24:14;60.20;;;12.90;;
18752;SDS011;9505;50.882;5.350;2023-03-03T16:35:16;82.38;;;15.02;;
18752;SDS011;9505;50.882;5.350;2023-03-03T16:37:59;55.55;;;11.80;;
18752;SDS011;9505;50.882;5.350;2023-03-03T16:40:30;57.40;;;13.63;;
18752;SDS011;9505;50.882;5.350;2023-03-03T16:43:05;58.83;;;13.25;;
18752;SDS011;9505;50.882;5.350;2023-03-03T16:45:56;82.82;;;16.02;;
18752;SDS011;9505;50.882;5.350;2023-03-03T16:48:29;75.13;;;14.30;;
18752;SDS011;9505;50.882;5.350;2023-03-03T16:54:17;97.25;;;17.92;;
18752;SDS011;9505;50.882;5.350;2023-03-03T16:56:47;56.97;;;12.93;;
18752;SDS011;9505;50.882;5.350;2023-03-03T16:59:35;63.10;;;13.10;;
18752;SDS011;9505;50.882;5.350;2023-03-03T17:03:16;59.15;;;12.65;;
18752;SDS011;9505;50.882;5.350;2023-03-03T17:05:43;62.92;;;12.98;;
18752;SDS011;9505;50.882;5.350;2023-03-03T17:14:17;64.82;;;13.68;;
18752;SDS011;9505;50.882;5.350;2023-03-03T17:19:58;56.22;;;12.25;;
18752;SDS011;9505;50.882;5.350;2023-03-03T17:25:21;57.72;;;12.68;;
18752;SDS011;9505;50.882;5.350;2023-03-03T17:33:35;73.18;;;13.38;;
18752;SDS011;9505;50.882;5.350;2023-03-03T17:39:07;57.05;;;10.98;;
18752;SDS011;9505;50.882;5.350;2023-03-03T17:47:15;70.32;;;13.30;;
18752;SDS011;9505;50.882;5.350;2023-03-03T18:00:48;64.50;;;12.35;;
18752;SDS011;9505;50.882;5.350;2023-03-03T18:23:36;108.53;;;16.83;;
18752;SDS011;9505;50.882;5.350;2023-03-03T18:31:43;86.55;;;15.20;;
18752;SDS011;9505;50.882;5.350;2023-03-03T18:34:40;74.68;;;13.82;;
18752;SDS011;9505;50.882;5.350;2023-03-03T18:39:41;83.72;;;14.75;;
18752;SDS011;9505;50.882;5.350;2023-03-03T18:42:37;70.80;;;12.77;;
18752;SDS011;9505;50.882;5.350;2023-03-03T18:53:27;103.63;;;17.48;;
18752;SDS011;9505;50.882;5.350;2023-03-03T18:55:55;100.03;;;15.48;;
18752;SDS011;9505;50.882;5.350;2023-03-03T18:58:28;94.00;;;15.80;;
18752;SDS011;9505;50.882;5.350;2023-03-03T19:01:07;87.90;;;17.50;;
18752;SDS011;9505;50.882;5.350;2023-03-03T19:06:12;100.20;;;17.30;;
18752;SDS011;9505;50.882;5.350;2023-03-03T19:08:55;72.25;;;14.45;;
18752;SDS011;9505;50.882;5.350;2023-03-03T19:11:55;96.32;;;16.13;;
18752;SDS011;9505;50.882;5.350;2023-03-03T19:16:43;87.53;;;16.88;;
18752;SDS011;9505;50.882;5.350;2023-03-03T19:19:16;126.47;;;20.73;;
18752;SDS011;9505;50.882;5.350;2023-03-03T19:21:50;97.15;;;17.88;;
18752;SDS011;9505;50.882;5.350;2023-03-03T19:24:36;85.88;;;16.77;;
18752;SDS011;9505;50.882;5.350;2023-03-03T19:27:11;94.95;;;15.50;;
18752;SDS011;9505;50.882;5.350;2023-03-03T19:38:59;95.03;;;17.17;;
18752;SDS011;9505;50.882;5.350;2023-03-03T19:41:52;89.00;;;15.07;;
18752;SDS011;9505;50.882;5.350;2023-03-03T19:44:41;91.10;;;16.40;;
18752;SDS011;9505;50.882;5.350;2023-03-03T19:47:38;96.67;;;16.60;;
18752;SDS011;9505;50.882;5.350;2023-03-03T19:53:04;99.23;;;15.83;;
18752;SDS011;9505;50.882;5.350;2023-03-03T19:56:03;99.67;;;17.73;;
18752;SDS011;9505;50.882;5.350;2023-03-03T20:07:19;96.43;;;16.57;;
18752;SDS011;9505;50.882;5.350;2023-03-03T20:15:18;77.17;;;14.73;;
18752;SDS011;9505;50.882;5.350;2023-03-03T20:34:39;82.45;;;15.73;;
18752;SDS011;9505;50.882;5.350;2023-03-03T20:37:17;84.47;;;14.25;;
18752;SDS011;9505;50.882;5.350;2023-03-03T21:04:16;86.47;;;19.33;;
18752;SDS011;9505;50.882;5.350;2023-03-03T21:06:46;83.93;;;17.13;;
18752;SDS011;9505;50.882;5.350;2023-03-03T21:09:46;86.78;;;18.10;;
18752;SDS011;9505;50.882;5.350;2023-03-03T21:15:02;76.85;;;15.82;;
18752;SDS011;9505;50.882;5.350;2023-03-03T21:17:31;78.65;;;16.75;;
18752;SDS011;9505;50.882;5.350;2023-03-03T21:20:30;88.47;;;19.98;;
18752;SDS011;9505;50.882;5.350;2023-03-03T21:22:54;81.63;;;17.52;;
18752;SDS011;9505;50.882;5.350;2023-03-03T21:28:16;71.50;;;14.65;;
18752;SDS011;9505;50.882;5.350;2023-03-03T21:33:44;71.57;;;16.35;;
18752;SDS011;9505;50.882;5.350;2023-03-03T21:36:16;78.30;;;17.35;;
18752;SDS011;9505;50.882;5.350;2023-03-03T21:38:47;81.30;;;17.00;;
18752;SDS011;9505;50.882;5.350;2023-03-03T21:41:13;75.95;;;16.77;;
18752;SDS011;9505;50.882;5.350;2023-03-03T21:43:44;75.75;;;15.52;;
18752;SDS011;9505;50.882;5.350;2023-03-03T21:46:12;84.50;;;17.73;;
18752;SDS011;9505;50.882;5.350;2023-03-03T21:48:42;77.40;;;15.80;;
18752;SDS011;9505;50.882;5.350;2023-03-03T21:51:09;67.30;;;15.95;;
18752;SDS011;9505;50.882;5.350;2023-03-03T21:53:36;76.32;;;16.50;;
18752;SDS011;9505;50.882;5.350;2023-03-03T21:56:01;79.07;;;16.75;;
18752;SDS011;9505;50.882;5.350;2023-03-03T21:58:27;84.40;;;17.23;;
18752;SDS011;9505;50.882;5.350;2023-03-03T22:00:52;89.93;;;17.70;;
18752;SDS011;9505;50.882;5.350;2023-03-03T22:03:18;78.63;;;17.27;;
18752;SDS011;9505;50.882;5.350;2023-03-03T22:05:45;79.63;;;18.83;;